Neils, Iowa
Current Conditions -  °F | °C
As of 9:15 AM on Thursday 23 Oct 2014 (Local Time) from KFXY Reporting Station
Haze Haze  
Wind Chill: 52°   Ceiling: 200
Heat Index: 52°   Visibility: 0.75mi
Dew Point: 52°   Wind: 3mph
Humidity: 100%   Direction: 160°SSE
Pressure: 30.03"   Gusts: NA
Location:  43.3059°N, 93.7624°W
Report Text: KFXY 231415Z AUTO 16003KT 3/4SM BR OVC002 11/11 A3003 RMK AO2
Loading
Personal Weather Stations






























Interactive Weather Map
Tropical Storm Tracking
New forecast layout! Learn more

10-Day Weather Forecast

Advertisements
Track Severe Weather on mobile